Time;durP1;ratioP1;P1;durP2;ratioP2;P2;SDS_P1;SDS_P2;PMS_P1;PMS_P2;Temp;Humidity;BMP_temperature;BMP_pressure;BME280_temperature;BME280_humidity;BME280_pressure;Samples;Min_cycle;Max_cycle;Signal;HPM_P1;HPM_P2
2022/02/17 00:02:50;;;;;;;3.20;0.10;;;14.70;86.40;;;;;;6200266;28;20056;-80
2022/02/17 00:05:52;;;;;;;1.70;0.10;;;14.80;86.10;;;;;;6199924;28;20488;-79
2022/02/17 00:08:53;;;;;;;0.00;0.00;;;14.80;85.80;;;;;;6200742;28;20511;-79
2022/02/17 00:11:55;;;;;;;0.10;0.00;;;14.80;85.60;;;;;;6199881;28;20561;-80
2022/02/17 00:14:59;;;;;;;0.00;0.00;;;14.70;85.60;;;;;;6199794;28;20423;-79
2022/02/17 00:18:12;;;;;;;0.88;0.05;;;14.70;86.70;;;;;;6199918;28;20073;-80
2022/02/17 00:21:14;;;;;;;0.52;0.10;;;14.60;87.40;;;;;;6200611;28;20051;-80
2022/02/17 00:24:16;;;;;;;0.00;0.00;;;14.60;87.60;;;;;;6199880;28;20448;-79
2022/02/17 00:27:18;;;;;;;0.80;0.22;;;14.50;87.40;;;;;;6199089;28;20043;-79
2022/02/17 00:30:21;;;;;;;2.30;0.10;;;14.50;86.90;;;;;;6199671;28;20511;-80
2022/02/17 00:33:24;;;;;;;0.40;0.05;;;14.50;86.70;;;;;;6198633;28;20192;-80
2022/02/17 00:36:25;;;;;;;0.10;0.00;;;14.60;86.30;;;;;;6200401;28;20082;-80
2022/02/17 00:39:27;;;;;;;0.20;0.00;;;14.70;85.90;;;;;;6199427;28;20085;-79
2022/02/17 00:42:29;;;;;;;0.35;0.03;;;14.70;85.80;;;;;;6197758;28;20080;-79
2022/02/17 00:45:32;;;;;;;0.10;0.00;;;14.80;86.70;;;;;;6198849;28;20129;-80
2022/02/17 00:48:34;;;;;;;0.00;0.00;;;14.80;86.90;;;;;;6199747;28;20046;-78
2022/02/17 00:51:36;;;;;;;0.30;0.00;;;14.70;86.70;;;;;;6198560;28;20186;-79
2022/02/17 00:54:38;;;;;;;0.00;0.00;;;14.70;86.10;;;;;;6198884;28;20053;-79
2022/02/17 00:57:40;;;;;;;0.10;0.10;;;14.70;86.10;;;;;;6198759;28;20046;-79
2022/02/17 01:00:43;;;;;;;0.10;0.05;;;14.70;85.90;;;;;;6199116;28;20073;-79
2022/02/17 01:03:45;;;;;;;0.10;0.00;;;14.80;86.10;;;;;;6198705;28;20046;-79
2022/02/17 01:06:46;;;;;;;0.40;0.08;;;14.80;85.10;;;;;;6198463;28;20401;-79
2022/02/17 01:09:48;;;;;;;0.10;0.00;;;14.80;85.10;;;;;;6198703;28;20500;-79
2022/02/17 01:12:50;;;;;;;0.08;0.00;;;14.80;85.00;;;;;;6199129;28;20054;-79
2022/02/17 01:15:53;;;;;;;0.22;0.10;;;14.80;85.00;;;;;;6198172;28;20508;-79
2022/02/17 01:18:55;;;;;;;0.22;0.08;;;14.80;85.40;;;;;;6198176;28;20054;-79
2022/02/17 01:21:57;;;;;;;1.10;0.10;;;14.80;85.80;;;;;;6198384;28;20065;-78
2022/02/17 01:24:59;;;;;;;0.00;0.00;;;14.70;86.20;;;;;;6198228;28;20412;-79
2022/02/17 01:28:01;;;;;;;1.65;0.00;;;14.70;86.60;;;;;;6198148;28;20140;-79
2022/02/17 01:31:04;;;;;;;0.00;0.00;;;14.70;86.80;;;;;;6198156;28;20042;-79
2022/02/17 01:34:06;;;;;;;0.20;0.00;;;14.70;86.70;;;;;;6199809;22;20407;-78
2022/02/17 01:37:08;;;;;;;0.10;0.00;;;14.70;86.40;;;;;;6174297;28;20051;-79
2022/02/17 01:40:11;;;;;;;0.05;0.00;;;14.70;86.00;;;;;;6175340;28;20055;-79
2022/02/17 01:43:16;;;;;;;0.00;0.00;;;14.70;85.70;;;;;;6175076;28;20055;-80
2022/02/17 01:46:33;;;;;;;2.00;0.00;;;14.80;85.30;;;;;;6175403;28;20051;-79
2022/02/17 01:49:35;;;;;;;0.00;0.00;;;14.80;85.30;;;;;;6174614;28;20046;-79
2022/02/17 01:52:37;;;;;;;0.00;0.00;;;14.90;85.00;;;;;;6176296;28;20109;-80
2022/02/17 01:55:41;;;;;;;0.43;0.00;;;15.00;85.30;;;;;;6176203;28;20051;-78
2022/02/17 01:58:43;;;;;;;0.13;0.00;;;14.90;85.00;;;;;;6180147;28;20050;-80
2022/02/17 02:01:46;;;;;;;0.00;0.00;;;14.90;84.90;;;;;;6180663;28;20038;-80
2022/02/17 02:04:48;;;;;;;0.22;0.00;;;15.00;84.70;;;;;;6179864;28;20130;-79
2022/02/17 02:07:50;;;;;;;0.35;0.00;;;14.90;84.40;;;;;;6179468;28;20102;-80
2022/02/17 02:10:52;;;;;;;0.20;0.00;;;15.00;84.60;;;;;;6179053;28;20151;-80
2022/02/17 02:13:53;;;;;;;0.00;0.00;;;15.00;84.30;;;;;;6179196;28;20401;-80
2022/02/17 02:16:58;;;;;;;0.43;0.25;;;15.00;84.40;;;;;;6180076;28;20064;-77
2022/02/17 02:20:01;;;;;;;0.00;0.00;;;15.20;84.10;;;;;;6179633;28;20070;-80
2022/02/17 02:23:05;;;;;;;0.00;0.00;;;15.00;83.70;;;;;;6179224;28;20503;-78
2022/02/17 02:26:07;;;;;;;0.95;0.00;;;15.00;83.70;;;;;;6181778;28;20054;-80
2022/02/17 02:29:09;;;;;;;0.43;0.00;;;15.10;83.50;;;;;;6181432;28;20051;-80
2022/02/17 02:32:12;;;;;;;0.10;0.00;;;15.10;83.50;;;;;;6181305;28;20500;-80
2022/02/17 02:35:14;;;;;;;0.63;0.15;;;15.10;83.40;;;;;;6181501;28;20110;-81
2022/02/17 02:38:19;;;;;;;0.52;0.20;;;15.10;83.40;;;;;;6181704;28;20039;-80
2022/02/17 02:41:21;;;;;;;0.00;0.00;;;15.10;83.20;;;;;;6180621;28;20058;-79
2022/02/17 02:44:23;;;;;;;0.00;0.00;;;15.20;83.00;;;;;;6180675;28;20051;-81
2022/02/17 02:47:25;;;;;;;0.00;0.00;;;15.20;82.90;;;;;;6186172;28;20105;-78
2022/02/17 02:50:27;;;;;;;0.00;0.00;;;15.20;82.80;;;;;;6178777;28;20504;-81
2022/02/17 02:53:31;;;;;;;0.17;0.00;;;15.20;82.40;;;;;;6168693;28;20061;-79
2022/02/17 02:56:33;;;;;;;0.20;0.00;;;15.20;82.20;;;;;;6178185;28;20054;-80
2022/02/17 02:59:36;;;;;;;0.00;0.00;;;15.20;82.80;;;;;;6178596;28;20057;-79
2022/02/17 03:02:38;;;;;;;0.10;0.00;;;15.20;82.00;;;;;;6178699;28;20047;-79
2022/02/17 03:05:40;;;;;;;0.00;0.00;;;15.30;82.00;;;;;;6178353;28;20043;-78
2022/02/17 03:08:44;;;;;;;0.00;0.00;;;15.40;82.10;;;;;;6178881;28;20051;-79
2022/02/17 03:11:46;;;;;;;0.00;0.00;;;15.30;81.90;;;;;;6167858;28;20078;-81
2022/02/17 03:14:47;;;;;;;0.17;0.03;;;15.40;81.90;;;;;;6181170;28;20121;-78
2022/02/17 03:17:50;;;;;;;0.15;0.00;;;15.30;81.90;;;;;;6178826;28;20039;-79
2022/02/17 03:20:52;;;;;;;0.00;0.00;;;15.30;82.00;;;;;;6179785;28;20059;-80
2022/02/17 03:23:55;;;;;;;0.03;0.00;;;15.40;82.00;;;;;;6185281;28;20042;-79
2022/02/17 03:26:57;;;;;;;1.00;0.00;;;15.30;81.80;;;;;;6183173;28;20053;-80
2022/02/17 03:29:58;;;;;;;0.20;0.00;;;15.30;81.90;;;;;;6178485;28;20039;-80
2022/02/17 03:33:02;;;;;;;0.00;0.00;;;15.30;82.10;;;;;;6178290;28;20492;-80
2022/02/17 03:36:04;;;;;;;0.10;0.00;;;15.40;82.20;;;;;;6177418;28;20130;-79
2022/02/17 03:39:08;;;;;;;0.00;0.00;;;15.30;82.00;;;;;;6176928;28;20518;-79
2022/02/17 03:42:10;;;;;;;0.10;0.10;;;15.30;82.20;;;;;;6176993;28;20089;-81
2022/02/17 03:45:12;;;;;;;4.47;1.27;;;15.40;82.20;;;;;;6177309;28;20509;-79
2022/02/17 03:51:32;;;;;;;0.85;0.00;;;15.30;82.60;;;;;;6174999;28;20046;-79
2022/02/17 03:54:37;;;;;;;0.00;0.00;;;15.30;82.70;;;;;;6158358;28;20050;-81
2022/02/17 03:57:39;;;;;;;0.20;0.00;;;15.30;82.50;;;;;;6176821;28;20151;-78
2022/02/17 04:00:41;;;;;;;0.00;0.00;;;15.30;83.40;;;;;;6177260;28;20046;-79
2022/02/17 04:03:43;;;;;;;0.00;0.00;;;15.20;83.90;;;;;;6177111;28;20050;-79
2022/02/17 04:06:45;;;;;;;0.10;0.00;;;15.10;84.40;;;;;;6177304;28;20531;-80
2022/02/17 04:09:48;;;;;;;0.60;0.00;;;15.10;85.00;;;;;;6177384;28;20058;-79
2022/02/17 04:12:50;;;;;;;0.10;0.00;;;15.10;85.00;;;;;;6177330;28;20057;-79
2022/02/17 04:15:52;;;;;;;0.00;0.00;;;15.00;84.50;;;;;;6176794;28;20053;-79
2022/02/17 04:18:54;;;;;;;0.00;0.00;;;15.00;84.50;;;;;;6176339;28;20510;-79
2022/02/17 04:21:56;;;;;;;0.20;0.00;;;15.10;84.50;;;;;;6177930;28;20050;-80
2022/02/17 04:24:59;;;;;;;0.25;0.00;;;15.10;84.40;;;;;;6177755;28;20055;-80
2022/02/17 04:28:01;;;;;;;0.00;0.00;;;15.20;84.40;;;;;;6176802;28;20118;-79
2022/02/17 04:31:02;;;;;;;0.00;0.00;;;15.20;84.40;;;;;;6176968;28;20472;-80
2022/02/17 04:34:04;;;;;;;0.10;0.00;;;15.20;84.40;;;;;;6176711;28;20424;-80
2022/02/17 04:37:06;;;;;;;0.20;0.03;;;15.10;84.80;;;;;;6176891;28;20136;-79
2022/02/17 04:40:10;;;;;;;0.32;0.00;;;15.00;85.40;;;;;;6176302;28;20058;-79
2022/02/17 04:43:11;;;;;;;0.65;0.10;;;15.10;86.00;;;;;;6176625;28;20046;-79
2022/02/17 04:46:13;;;;;;;0.00;0.00;;;15.10;86.40;;;;;;6176255;28;20497;-79
2022/02/17 04:49:15;;;;;;;0.00;0.00;;;15.00;88.10;;;;;;6177632;28;20065;-80
2022/02/17 04:52:17;;;;;;;0.73;0.00;;;14.80;89.40;;;;;;6177852;28;20099;-80
2022/02/17 04:55:20;;;;;;;3.30;0.10;;;14.70;90.50;;;;;;6177243;28;20050;-80
2022/02/17 04:58:23;;;;;;;5.50;0.28;;;14.70;91.50;;;;;;6179238;28;20047;-79
2022/02/17 05:01:25;;;;;;;3.83;0.55;;;14.40;92.50;;;;;;6177785;28;20081;-80
2022/02/17 05:04:28;;;;;;;0.68;0.03;;;14.10;94.40;;;;;;6177200;28;20082;-80
2022/02/17 05:07:29;;;;;;;2.60;0.50;;;13.80;95.20;;;;;;6178406;28;20058;-79
2022/02/17 05:10:33;;;;;;;6.50;1.02;;;13.60;95.20;;;;;;6177111;28;20432;-79
2022/02/17 05:13:34;;;;;;;5.97;0.80;;;13.50;95.40;;;;;;6175869;28;20051;-79
2022/02/17 05:16:36;;;;;;;8.13;0.90;;;13.30;95.30;;;;;;6176037;28;20145;-79
2022/02/17 05:19:38;;;;;;;12.80;1.55;;;13.20;94.60;;;;;;6175588;28;20523;-80
2022/02/17 05:22:41;;;;;;;6.90;1.17;;;13.00;93.60;;;;;;6175855;28;20109;-78
2022/02/17 05:25:47;;;;;;;5.00;0.88;;;12.80;92.40;;;;;;6176051;28;20504;-80
2022/02/17 05:28:49;;;;;;;6.55;1.10;;;12.50;92.00;;;;;;6176020;28;20509;-78
2022/02/17 05:31:50;;;;;;;6.18;0.98;;;12.40;92.20;;;;;;6175827;28;20046;-79
2022/02/17 05:34:52;;;;;;;10.90;2.20;;;12.30;93.10;;;;;;6175277;28;20047;-78
2022/02/17 05:37:54;;;;;;;8.02;1.15;;;12.20;93.40;;;;;;6175550;28;20043;-79
2022/02/17 05:40:58;;;;;;;20.23;3.42;;;12.20;94.40;;;;;;6176112;28;20410;-78
2022/02/17 05:44:00;;;;;;;10.10;2.47;;;12.10;92.80;;;;;;6174503;28;20269;-79
2022/02/17 05:47:02;;;;;;;14.60;7.53;;;12.20;93.50;;;;;;6173878;28;20619;-78
2022/02/17 05:50:04;;;;;;;20.13;8.10;;;12.20;93.80;;;;;;6174320;28;20083;-77
2022/02/17 05:53:06;;;;;;;13.25;7.28;;;12.30;93.80;;;;;;6175188;28;20055;-80
2022/02/17 05:56:10;;;;;;;7.07;2.05;;;12.30;93.90;;;;;;6174965;28;20046;-79
2022/02/17 05:59:11;;;;;;;6.15;1.45;;;12.30;92.80;;;;;;6175269;28;20051;-77
2022/02/17 06:02:13;;;;;;;13.10;1.60;;;12.30;91.00;;;;;;6174574;28;20411;-78
2022/02/17 06:05:16;;;;;;;8.45;1.80;;;12.30;90.90;;;;;;6174082;28;20061;-78
2022/02/17 06:08:19;;;;;;;6.80;1.67;;;12.40;90.10;;;;;;6174677;28;20046;-79
2022/02/17 06:11:22;;;;;;;6.68;1.60;;;12.40;90.20;;;;;;6175078;28;20050;-77
2022/02/17 06:14:23;;;;;;;9.38;2.95;;;12.40;90.00;;;;;;6174500;28;20046;-78
2022/02/17 06:17:25;;;;;;;10.95;1.30;;;12.40;90.40;;;;;;6173892;28;20130;-79
2022/02/17 06:20:27;;;;;;;25.95;11.38;;;12.40;89.90;;;;;;6174548;28;20047;-77
2022/02/17 06:23:29;;;;;;;10.00;2.97;;;12.40;89.20;;;;;;6174122;28;20129;-77
2022/02/17 06:26:32;;;;;;;11.85;2.25;;;12.40;87.80;;;;;;6174209;28;20483;-78
2022/02/17 06:29:33;;;;;;;11.90;1.58;;;12.40;87.50;;;;;;6174252;28;20047;-79
2022/02/17 06:32:35;;;;;;;19.42;8.07;;;12.40;86.50;;;;;;6174375;28;20093;-77
2022/02/17 06:35:38;;;;;;;7.47;1.85;;;12.40;86.10;;;;;;6173439;28;20133;-77
2022/02/17 06:38:40;;;;;;;17.52;7.82;;;12.40;85.60;;;;;;6174317;28;20047;-78
2022/02/17 06:41:44;;;;;;;13.20;4.15;;;12.40;85.30;;;;;;6174060;28;20126;-78
2022/02/17 06:44:46;;;;;;;11.65;1.40;;;12.20;84.10;;;;;;6178604;28;20046;-77
2022/02/17 06:47:47;;;;;;;9.70;2.15;;;12.40;84.10;;;;;;6179019;28;20051;-78
2022/02/17 06:50:49;;;;;;;7.82;1.70;;;12.40;83.70;;;;;;6178051;28;20050;-78
2022/02/17 06:53:51;;;;;;;14.07;2.90;;;12.50;83.40;;;;;;6178806;28;20049;-79
2022/02/17 06:56:55;;;;;;;6.45;1.80;;;12.50;83.40;;;;;;6179031;28;20099;-79
2022/02/17 07:00:02;;;;;;;7.68;1.10;;;12.50;83.30;;;;;;6177347;28;20143;-78
2022/02/17 07:03:06;;;;;;;11.27;1.77;;;12.50;82.80;;;;;;6176730;28;20193;-77
2022/02/17 07:06:08;;;;;;;16.60;2.63;;;12.40;82.40;;;;;;6176672;28;20133;-77
2022/02/17 07:09:10;;;;;;;10.88;1.63;;;12.40;82.60;;;;;;6177644;28;20059;-79
2022/02/17 07:12:14;;;;;;;9.02;2.15;;;12.40;81.80;;;;;;6176737;28;20049;-78
2022/02/17 07:15:15;;;;;;;6.18;1.05;;;12.40;81.90;;;;;;6176521;28;20065;-78
2022/02/17 07:18:19;;;;;;;7.93;1.83;;;12.40;81.20;;;;;;6177572;28;20050;-78
2022/02/17 07:21:20;;;;;;;8.77;1.63;;;12.40;80.90;;;;;;6176791;28;20609;-78
2022/02/17 07:24:23;;;;;;;5.60;1.10;;;12.50;80.90;;;;;;6176792;28;20047;-79
2022/02/17 07:27:26;;;;;;;12.23;1.45;;;12.50;79.70;;;;;;6176335;28;20058;-77
2022/02/17 07:30:29;;;;;;;7.47;1.25;;;12.70;79.90;;;;;;6176180;28;20531;-79
2022/02/17 07:33:32;;;;;;;8.48;2.28;;;12.70;78.90;;;;;;6175932;28;20530;-78
2022/02/17 07:36:34;;;;;;;14.35;1.77;;;12.70;78.80;;;;;;6192826;22;20050;-80
2022/02/17 07:39:36;;;;;;;9.77;2.03;;;12.60;77.80;;;;;;6178169;28;20051;-80
2022/02/17 07:42:41;;;;;;;6.30;1.13;;;12.60;77.40;;;;;;6177999;28;20154;-80
2022/02/17 07:45:43;;;;;;;8.50;1.15;;;12.70;76.30;;;;;;6169121;28;20420;-80
2022/02/17 07:48:45;;;;;;;8.75;1.58;;;12.70;75.90;;;;;;6155250;28;20051;-78
2022/02/17 07:51:47;;;;;;;7.88;1.33;;;12.70;75.90;;;;;;6156880;28;20070;-80
2022/02/17 07:54:49;;;;;;;9.85;1.25;;;12.90;75.20;;;;;;6154104;28;20051;-79
2022/02/17 07:57:52;;;;;;;10.95;1.40;;;13.20;74.50;;;;;;6155560;28;20052;-78
2022/02/17 08:00:54;;;;;;;14.15;1.33;;;13.50;73.10;;;;;;6156238;28;20047;-80
2022/02/17 08:03:56;;;;;;;11.07;4.22;;;13.50;72.20;;;;;;6154392;28;20051;-80
2022/02/17 08:06:58;;;;;;;12.93;1.13;;;13.50;72.20;;;;;;6145089;28;20501;-79
2022/02/17 08:10:00;;;;;;;15.48;1.60;;;13.40;71.60;;;;;;6153873;28;20066;-79
2022/02/17 08:13:04;;;;;;;11.70;1.88;;;13.50;70.40;;;;;;6174774;28;20066;-80
2022/02/17 08:16:06;;;;;;;11.15;1.60;;;13.90;69.80;;;;;;6168312;28;20131;-82
2022/02/17 08:19:07;;;;;;;10.30;1.70;;;14.40;68.40;;;;;;6157309;28;20054;-82
2022/02/17 08:22:11;;;;;;;6.20;1.45;;;14.70;66.30;;;;;;6154253;28;20424;-79
2022/02/17 08:25:12;;;;;;;7.13;1.40;;;15.00;64.50;;;;;;6154858;28;20082;-82
2022/02/17 08:28:16;;;;;;;14.43;2.85;;;15.20;62.10;;;;;;6154419;28;20154;-80
2022/02/17 08:31:17;;;;;;;13.30;2.42;;;15.40;61.60;;;;;;6154230;28;20079;-81
2022/02/17 08:34:20;;;;;;;13.68;2.35;;;15.60;60.30;;;;;;6154787;28;20051;-83
2022/02/17 08:37:21;;;;;;;9.20;1.92;;;15.80;58.50;;;;;;6157973;28;20051;-79
2022/02/17 08:40:24;;;;;;;9.63;2.20;;;16.00;57.30;;;;;;6176226;28;20356;-82
2022/02/17 08:43:27;;;;;;;18.92;2.78;;;16.10;55.60;;;;;;6180779;28;20053;-82
2022/02/17 08:46:29;;;;;;;8.85;2.05;;;16.30;55.80;;;;;;6177657;28;20053;-81
2022/02/17 08:49:31;;;;;;;12.50;2.28;;;16.40;53.90;;;;;;6178199;28;20057;-81
2022/02/17 08:52:32;;;;;;;16.60;2.35;;;16.30;55.10;;;;;;6178759;28;20050;-83
2022/02/17 08:55:34;;;;;;;21.17;3.45;;;16.00;54.70;;;;;;6178434;28;20121;-81
2022/02/17 08:58:38;;;;;;;14.02;2.70;;;15.70;55.80;;;;;;6177352;28;20046;-81
2022/02/17 09:01:39;;;;;;;23.75;3.10;;;15.40;57.00;;;;;;6178180;28;20152;-80
2022/02/17 09:04:41;;;;;;;18.20;3.65;;;15.00;57.60;;;;;;6177677;28;20141;-82
2022/02/17 09:07:43;;;;;;;24.45;3.50;;;14.90;58.70;;;;;;6177654;28;20133;-81
2022/02/17 09:10:45;;;;;;;15.07;2.80;;;14.70;59.30;;;;;;6170123;28;20049;-81
2022/02/17 09:13:48;;;;;;;18.67;2.38;;;14.50;60.30;;;;;;6177143;28;20046;-81
2022/02/17 09:16:50;;;;;;;22.67;3.63;;;14.50;60.30;;;;;;6169932;28;20106;-80
2022/02/17 09:19:52;;;;;;;22.63;3.60;;;14.40;60.80;;;;;;6152955;28;20054;-81
2022/02/17 09:22:54;;;;;;;12.07;2.10;;;14.30;60.80;;;;;;6152797;28;20047;-79
2022/02/17 09:25:56;;;;;;;18.60;2.88;;;14.20;61.50;;;;;;6153039;28;20186;-81
2022/02/17 09:28:59;;;;;;;21.58;2.92;;;14.10;61.80;;;;;;6151855;28;20051;-80
2022/02/17 09:32:01;;;;;;;19.75;2.97;;;14.10;61.80;;;;;;6162313;28;20108;-81
2022/02/17 09:35:03;;;;;;;20.50;3.38;;;14.10;62.10;;;;;;6176221;28;20121;-83
2022/02/17 09:38:05;;;;;;;18.83;2.72;;;14.10;61.80;;;;;;6173716;28;20501;-78
2022/02/17 09:41:08;;;;;;;16.23;6.75;;;14.10;61.40;;;;;;6172666;28;20097;-80
2022/02/17 09:44:12;;;;;;;33.42;16.77;;;14.10;61.30;;;;;;6176254;28;20061;-81
2022/02/17 09:47:15;;;;;;;47.55;27.73;;;14.30;61.50;;;;;;6175942;28;20058;-80
2022/02/17 09:50:17;;;;;;;24.88;12.23;;;14.40;61.60;;;;;;6176252;28;20408;-79
2022/02/17 09:53:19;;;;;;;19.58;4.05;;;14.50;61.40;;;;;;6176327;28;20051;-80
2022/02/17 09:56:22;;;;;;;22.98;3.53;;;14.50;61.00;;;;;;6176133;28;20057;-82
2022/02/17 09:59:25;;;;;;;16.88;2.90;;;14.60;60.70;;;;;;6174659;28;20054;-80
2022/02/17 10:02:28;;;;;;;18.92;2.65;;;14.50;61.00;;;;;;6174180;28;20047;-80
2022/02/17 10:05:30;;;;;;;14.00;2.35;;;14.40;61.80;;;;;;6175142;28;20141;-80
2022/02/17 10:08:32;;;;;;;12.75;2.50;;;14.20;61.90;;;;;;6170264;28;20122;-80
2022/02/17 10:11:34;;;;;;;18.25;2.03;;;14.10;62.30;;;;;;6175308;28;20136;-80
2022/02/17 10:14:37;;;;;;;18.42;2.70;;;14.10;62.60;;;;;;6175730;28;20051;-81
2022/02/17 10:17:58;;;;;;;16.52;2.88;;;14.10;62.20;;;;;;6163675;28;20050;-81
2022/02/17 10:21:05;;;;;;;18.38;3.60;;;14.10;62.80;;;;;;6158046;28;20047;-81
2022/02/17 10:24:07;;;;;;;15.23;2.28;;;14.20;62.50;;;;;;6156596;28;20071;-80
2022/02/17 10:27:12;;;;;;;18.67;2.28;;;14.30;62.10;;;;;;6155829;28;20118;-81
2022/02/17 10:30:19;;;;;;;14.05;2.60;;;14.40;61.40;;;;;;6155828;28;20479;-80
2022/02/17 10:33:21;;;;;;;13.80;2.33;;;14.50;59.80;;;;;;6156200;28;20508;-81
2022/02/17 10:36:34;;;;;;;9.85;1.60;;;14.50;58.90;;;;;;6156173;28;20051;-81
2022/02/17 10:39:42;;;;;;;15.10;2.28;;;14.70;58.00;;;;;;6156377;28;20429;-80
2022/02/17 10:42:44;;;;;;;16.35;2.20;;;14.70;58.20;;;;;;6165030;28;20078;-81
2022/02/17 10:45:48;;;;;;;9.05;2.50;;;14.60;59.10;;;;;;6179256;28;20046;-81
2022/02/17 10:48:50;;;;;;;14.65;2.50;;;14.60;59.20;;;;;;6179850;28;20078;-81
2022/02/17 10:51:53;;;;;;;19.60;2.20;;;14.50;59.20;;;;;;6178523;28;20043;-80
2022/02/17 10:55:14;;;;;;;17.33;2.83;;;14.50;58.90;;;;;;6179621;28;20051;-82
2022/02/17 10:58:17;;;;;;;16.85;3.58;;;14.40;58.50;;;;;;6179685;28;20054;-82
2022/02/17 11:01:22;;;;;;;20.83;3.15;;;14.30;58.50;;;;;;6179152;28;20129;-82
2022/02/17 11:04:24;;;;;;;24.38;3.38;;;14.10;58.60;;;;;;6179109;28;20504;-80
2022/02/17 11:07:26;;;;;;;18.55;2.08;;;14.20;59.00;;;;;;6178952;28;20042;-81
2022/02/17 11:10:28;;;;;;;18.52;2.92;;;14.40;58.90;;;;;;6172018;28;20122;-80
2022/02/17 11:13:33;;;;;;;12.05;2.85;;;14.40;58.50;;;;;;6180343;28;20170;-80
2022/02/17 11:16:40;;;;;;;18.33;3.47;;;14.30;57.30;;;;;;6187491;28;20058;-79
2022/02/17 11:19:42;;;;;;;21.83;3.42;;;14.30;57.40;;;;;;6187843;28;20123;-80
2022/02/17 11:22:46;;;;;;;14.15;2.90;;;14.50;56.60;;;;;;6180864;28;20047;-81
2022/02/17 11:25:49;;;;;;;11.73;2.60;;;14.80;56.30;;;;;;6179526;28;20046;-81
2022/02/17 11:28:51;;;;;;;11.18;2.28;;;15.00;56.60;;;;;;6179511;28;20133;-81
2022/02/17 11:31:57;;;;;;;17.10;2.30;;;15.00;54.50;;;;;;6179147;28;20043;-80
2022/02/17 11:35:00;;;;;;;10.45;2.50;;;15.00;54.70;;;;;;6177807;28;20043;-80
2022/02/17 11:38:02;;;;;;;18.08;3.60;;;14.90;54.30;;;;;;6176624;28;20047;-81
2022/02/17 11:41:12;;;;;;;19.20;2.65;;;14.90;54.70;;;;;;6173968;28;20100;-80
2022/02/17 11:44:18;;;;;;;11.50;2.42;;;14.70;54.60;;;;;;6177873;28;20046;-82
2022/02/17 11:47:23;;;;;;;17.38;2.80;;;14.70;54.90;;;;;;6177923;28;20527;-80
2022/02/17 11:50:39;;;;;;;12.80;2.20;;;14.70;54.60;;;;;;6178923;28;20038;-81
2022/02/17 11:53:42;;;;;;;15.32;3.95;;;14.80;54.90;;;;;;6178051;28;20067;-81
2022/02/17 11:56:47;;;;;;;13.10;2.65;;;14.70;54.30;;;;;;6178118;28;20057;-80
2022/02/17 11:59:49;;;;;;;13.68;2.67;;;14.70;54.40;;;;;;6177684;28;20141;-80
2022/02/17 12:02:55;;;;;;;21.13;2.10;;;14.70;54.70;;;;;;6177830;28;20050;-80
2022/02/17 12:06:33;;;;;;;19.75;2.97;;;14.70;54.70;;;;;;6177400;28;20043;-80
2022/02/17 12:09:39;;;;;;;14.23;3.50;;;14.80;54.30;;;;;;6170619;28;20051;-81
2022/02/17 12:12:41;;;;;;;23.58;2.13;;;14.80;53.80;;;;;;6162791;28;20061;-80
2022/02/17 12:15:45;;;;;;;19.00;2.20;;;14.70;53.80;;;;;;6176765;28;20042;-80
2022/02/17 12:18:48;;;;;;;21.17;2.50;;;14.70;54.10;;;;;;6177058;28;20528;-81
2022/02/17 12:21:50;;;;;;;14.15;2.10;;;14.60;54.40;;;;;;6183801;28;20043;-85
2022/02/17 12:24:51;;;;;;;12.23;2.85;;;14.40;54.20;;;;;;6183157;28;20051;-82
2022/02/17 12:27:55;;;;;;;20.05;3.10;;;14.30;55.00;;;;;;6174684;28;20119;-81
2022/02/17 12:30:57;;;;;;;34.83;9.85;;;14.20;55.50;;;;;;6152583;28;20035;-81
2022/02/17 12:34:04;;;;;;;46.80;18.23;;;14.20;56.70;;;;;;6154028;28;20049;-81
2022/02/17 12:37:06;;;;;;;70.68;23.77;;;14.30;57.10;;;;;;6153905;28;20106;-81
2022/02/17 12:40:11;;;;;;;67.57;25.52;;;14.40;57.20;;;;;;6165377;28;20086;-83
2022/02/17 12:43:26;;;;;;;89.95;34.92;;;14.40;57.30;;;;;;6177261;28;20126;-82
2022/02/17 12:46:28;;;;;;;85.90;31.67;;;14.40;57.70;;;;;;6174886;28;20050;-81
2022/02/17 12:49:33;;;;;;;80.45;31.63;;;14.40;58.60;;;;;;6174827;28;20051;-80
2022/02/17 12:52:35;;;;;;;34.90;9.57;;;14.40;59.30;;;;;;6175090;28;20138;-80
2022/02/17 12:55:42;;;;;;;31.58;8.13;;;14.60;59.20;;;;;;6174531;28;20051;-81
2022/02/17 12:58:44;;;;;;;32.88;6.63;;;14.70;59.00;;;;;;6175557;28;20050;-81
2022/02/17 13:01:52;;;;;;;38.38;8.38;;;14.70;59.00;;;;;;6175879;28;20126;-81
2022/02/17 13:05:00;;;;;;;27.98;5.85;;;14.70;59.10;;;;;;6177214;28;20053;-81
2022/02/17 13:08:02;;;;;;;21.77;5.63;;;14.80;58.60;;;;;;6178739;28;20139;-81
2022/02/17 13:11:05;;;;;;;25.55;5.03;;;15.00;58.50;;;;;;6176174;28;20389;-81
2022/02/17 13:14:08;;;;;;;22.83;3.13;;;15.30;57.60;;;;;;6181343;28;20483;-81
2022/02/17 13:17:12;;;;;;;22.00;4.22;;;15.50;56.70;;;;;;6181953;28;20055;-81
2022/02/17 13:20:27;;;;;;;24.77;3.88;;;15.50;54.90;;;;;;6179626;28;20237;-82
2022/02/17 13:23:29;;;;;;;21.95;3.53;;;15.40;53.70;;;;;;6176986;28;20144;-82
2022/02/17 13:26:33;;;;;;;17.15;2.80;;;15.20;53.10;;;;;;6176144;28;20133;-84
2022/02/17 13:29:34;;;;;;;17.08;2.75;;;15.00;53.10;;;;;;6176640;28;20202;-84
2022/02/17 13:32:39;;;;;;;31.60;3.83;;;14.80;53.30;;;;;;6176522;28;20073;-79
2022/02/17 13:35:50;;;;;;;17.60;3.60;;;14.80;54.10;;;;;;6201730;22;20050;-79
2022/02/17 13:39:10;;;;;;;20.05;3.33;;;14.80;55.30;;;;;;6179132;28;20113;-80
2022/02/17 13:42:13;;;;;;;17.55;2.70;;;14.90;55.80;;;;;;6193513;28;20414;-80
2022/02/17 13:45:19;;;;;;;17.27;3.05;;;15.00;57.60;;;;;;6201799;28;20067;-81
2022/02/17 13:48:30;;;;;;;15.25;3.38;;;15.20;59.00;;;;;;6202253;28;20061;-80
2022/02/17 13:51:43;;;;;;;16.63;3.08;;;15.50;57.90;;;;;;6201893;28;20384;-79
2022/02/17 13:54:52;;;;;;;18.25;2.95;;;15.60;57.30;;;;;;6205650;28;20083;-80
2022/02/17 13:57:56;;;;;;;16.90;2.13;;;15.90;55.00;;;;;;6207220;28;20066;-82
2022/02/17 14:00:58;;;;;;;17.77;3.00;;;16.10;54.10;;;;;;6206548;28;20495;-79
2022/02/17 14:04:01;;;;;;;12.73;2.22;;;16.40;53.90;;;;;;6205905;28;20570;-81
2022/02/17 14:07:05;;;;;;;20.52;2.60;;;16.60;52.50;;;;;;6206624;28;20050;-81
2022/02/17 14:10:09;;;;;;;18.10;2.60;;;16.60;51.90;;;;;;6194257;28;20500;-81
2022/02/17 14:13:11;;;;;;;22.20;3.20;;;16.50;52.30;;;;;;6188435;28;20153;-79
2022/02/17 14:16:13;;;;;;;19.13;2.83;;;16.30;52.20;;;;;;6182338;28;20057;-79
2022/02/17 14:19:15;;;;;;;11.90;2.45;;;16.00;52.80;;;;;;6183550;28;20054;-79
2022/02/17 14:22:18;;;;;;;13.60;2.28;;;15.90;51.90;;;;;;6182404;28;20050;-80
2022/02/17 14:25:20;;;;;;;20.67;2.38;;;15.70;52.60;;;;;;6182245;28;20050;-80
2022/02/17 14:28:23;;;;;;;16.27;2.63;;;15.70;52.80;;;;;;6182122;28;20055;-80
2022/02/17 14:31:25;;;;;;;18.45;2.92;;;15.70;55.10;;;;;;6180995;28;20058;-80
2022/02/17 14:34:27;;;;;;;24.88;3.13;;;15.80;56.50;;;;;;6181016;28;20050;-81
2022/02/17 14:37:30;;;;;;;19.23;2.45;;;15.90;57.20;;;;;;6181115;28;20058;-81
2022/02/17 14:40:37;;;;;;;17.73;2.60;;;15.80;57.40;;;;;;6190175;28;20069;-80
2022/02/17 14:43:38;;;;;;;14.27;3.58;;;15.80;58.10;;;;;;6204581;28;20046;-79
2022/02/17 14:46:41;;;;;;;17.60;2.42;;;15.90;57.90;;;;;;6203601;28;20058;-79
2022/02/17 14:49:42;;;;;;;15.68;2.20;;;16.10;57.50;;;;;;6204132;28;20125;-80
2022/02/17 14:52:46;;;;;;;10.82;1.98;;;16.20;57.30;;;;;;6205064;28;20057;-80
2022/02/17 14:55:50;;;;;;;10.23;2.35;;;16.30;56.50;;;;;;6204769;28;20508;-79
2022/02/17 14:58:52;;;;;;;13.52;2.30;;;16.30;56.30;;;;;;6204786;28;20046;-78
2022/02/17 15:01:53;;;;;;;13.80;2.53;;;16.30;56.40;;;;;;6204162;28;20046;-79
2022/02/17 15:04:55;;;;;;;9.43;1.98;;;16.30;56.40;;;;;;6203448;28;20085;-79
2022/02/17 15:07:58;;;;;;;14.82;2.55;;;16.20;56.50;;;;;;6202084;28;20046;-79
2022/02/17 15:11:01;;;;;;;18.00;3.00;;;16.20;56.70;;;;;;6193081;28;20045;-80
2022/02/17 15:14:03;;;;;;;16.33;2.40;;;16.20;56.20;;;;;;6204356;28;20046;-79
2022/02/17 15:17:04;;;;;;;14.93;1.95;;;16.20;55.20;;;;;;6205475;28;20423;-79
2022/02/17 15:20:14;;;;;;;8.30;2.15;;;16.30;53.80;;;;;;6204421;28;20546;-80
2022/02/17 15:23:17;;;;;;;24.85;2.72;;;16.10;53.10;;;;;;6204387;28;20050;-79
2022/02/17 15:26:19;;;;;;;14.35;1.98;;;16.00;53.50;;;;;;6204066;28;20053;-78
2022/02/17 15:29:20;;;;;;;11.57;2.53;;;16.00;53.80;;;;;;6187805;28;20058;-79
2022/02/17 15:32:22;;;;;;;16.33;2.28;;;16.10;53.80;;;;;;6181527;28;20046;-80
2022/02/17 15:35:24;;;;;;;16.17;2.50;;;15.90;53.70;;;;;;6196337;28;20050;-80
2022/02/17 15:38:28;;;;;;;12.23;2.40;;;15.70;54.40;;;;;;6199176;28;20046;-80
2022/02/17 15:41:30;;;;;;;15.35;3.17;;;15.50;55.20;;;;;;6195054;28;20057;-80
2022/02/17 15:44:34;;;;;;;13.57;2.58;;;15.30;56.10;;;;;;6205347;28;20056;-79
2022/02/17 15:47:36;;;;;;;19.63;2.30;;;15.10;57.00;;;;;;6205034;28;20046;-81
2022/02/17 15:50:38;;;;;;;18.63;2.67;;;14.90;57.90;;;;;;6205216;28;20092;-80